sensor_id;sensor_type;location;lat;lon;timestamp;P1;durP1;ratioP1;P2;durP2;ratioP2
20056;SDS011;10189;49.546;7.906;2022-11-15T00:02:34;8.45;;;6.85;;
20056;SDS011;10189;49.546;7.906;2022-11-15T00:05:18;8.48;;;6.88;;
20056;SDS011;10189;49.546;7.906;2022-11-15T00:08:03;9.43;;;7.38;;
20056;SDS011;10189;49.546;7.906;2022-11-15T00:10:55;10.88;;;7.50;;
20056;SDS011;10189;49.546;7.906;2022-11-15T00:13:40;8.93;;;7.82;;
20056;SDS011;10189;49.546;7.906;2022-11-15T00:16:25;11.25;;;7.40;;
20056;SDS011;10189;49.546;7.906;2022-11-15T00:19:09;10.63;;;7.47;;
20056;SDS011;10189;49.546;7.906;2022-11-15T00:21:54;10.20;;;8.00;;
20056;SDS011;10189;49.546;7.906;2022-11-15T00:24:39;9.38;;;8.15;;
20056;SDS011;10189;49.546;7.906;2022-11-15T00:27:24;11.43;;;7.85;;
20056;SDS011;10189;49.546;7.906;2022-11-15T00:30:08;9.23;;;7.68;;
20056;SDS011;10189;49.546;7.906;2022-11-15T00:32:54;9.65;;;7.45;;
20056;SDS011;10189;49.546;7.906;2022-11-15T00:35:39;9.23;;;6.68;;
20056;SDS011;10189;49.546;7.906;2022-11-15T00:38:23;7.75;;;6.45;;
20056;SDS011;10189;49.546;7.906;2022-11-15T00:41:08;9.40;;;6.85;;
20056;SDS011;10189;49.546;7.906;2022-11-15T00:43:52;10.80;;;6.65;;
20056;SDS011;10189;49.546;7.906;2022-11-15T00:46:37;8.23;;;5.82;;
20056;SDS011;10189;49.546;7.906;2022-11-15T00:49:22;8.95;;;6.20;;
20056;SDS011;10189;49.546;7.906;2022-11-15T00:52:06;9.00;;;6.45;;
20056;SDS011;10189;49.546;7.906;2022-11-15T00:54:51;9.25;;;5.90;;
20056;SDS011;10189;49.546;7.906;2022-11-15T00:57:35;10.13;;;6.10;;
20056;SDS011;10189;49.546;7.906;2022-11-15T01:00:20;7.60;;;5.57;;
20056;SDS011;10189;49.546;7.906;2022-11-15T01:03:04;6.72;;;5.07;;
20056;SDS011;10189;49.546;7.906;2022-11-15T01:05:49;5.80;;;4.97;;
20056;SDS011;10189;49.546;7.906;2022-11-15T01:08:34;7.50;;;5.30;;
20056;SDS011;10189;49.546;7.906;2022-11-15T01:11:22;7.20;;;5.18;;
20056;SDS011;10189;49.546;7.906;2022-11-15T01:14:06;7.80;;;5.25;;
20056;SDS011;10189;49.546;7.906;2022-11-15T01:16:51;6.78;;;5.15;;
20056;SDS011;10189;49.546;7.906;2022-11-15T01:19:36;7.20;;;5.07;;
20056;SDS011;10189;49.546;7.906;2022-11-15T01:22:20;6.45;;;4.78;;
20056;SDS011;10189;49.546;7.906;2022-11-15T01:25:05;6.75;;;4.88;;
20056;SDS011;10189;49.546;7.906;2022-11-15T01:27:49;4.65;;;4.20;;
20056;SDS011;10189;49.546;7.906;2022-11-15T01:30:35;5.53;;;4.55;;
20056;SDS011;10189;49.546;7.906;2022-11-15T01:33:20;5.40;;;4.90;;
20056;SDS011;10189;49.546;7.906;2022-11-15T01:36:05;5.88;;;4.60;;
20056;SDS011;10189;49.546;7.906;2022-11-15T01:38:53;6.57;;;4.47;;
20056;SDS011;10189;49.546;7.906;2022-11-15T01:41:40;5.82;;;4.70;;
20056;SDS011;10189;49.546;7.906;2022-11-15T01:47:31;6.60;;;4.43;;
20056;SDS011;10189;49.546;7.906;2022-11-15T01:50:22;6.55;;;4.60;;
20056;SDS011;10189;49.546;7.906;2022-11-15T01:53:12;5.90;;;4.05;;
20056;SDS011;10189;49.546;7.906;2022-11-15T01:55:59;5.45;;;4.75;;
20056;SDS011;10189;49.546;7.906;2022-11-15T01:58:49;4.70;;;4.20;;
20056;SDS011;10189;49.546;7.906;2022-11-15T02:01:36;6.05;;;4.30;;
20056;SDS011;10189;49.546;7.906;2022-11-15T02:04:22;5.93;;;4.07;;
20056;SDS011;10189;49.546;7.906;2022-11-15T02:07:28;5.10;;;4.30;;
20056;SDS011;10189;49.546;7.906;2022-11-15T02:10:19;5.30;;;4.35;;
20056;SDS011;10189;49.546;7.906;2022-11-15T02:13:06;6.63;;;4.68;;
20056;SDS011;10189;49.546;7.906;2022-11-15T02:25:40;4.82;;;3.58;;
20056;SDS011;10189;49.546;7.906;2022-11-15T02:38:41;5.85;;;4.38;;
20056;SDS011;10189;49.546;7.906;2022-11-15T02:45:13;6.00;;;4.95;;
20056;SDS011;10189;49.546;7.906;2022-11-15T02:48:06;5.43;;;4.30;;
20056;SDS011;10189;49.546;7.906;2022-11-15T02:50:53;6.90;;;4.18;;
20056;SDS011;10189;49.546;7.906;2022-11-15T02:53:38;4.95;;;4.10;;
20056;SDS011;10189;49.546;7.906;2022-11-15T02:56:23;6.95;;;4.70;;
20056;SDS011;10189;49.546;7.906;2022-11-15T02:59:13;4.95;;;4.22;;
20056;SDS011;10189;49.546;7.906;2022-11-15T03:11:20;5.35;;;4.00;;
20056;SDS011;10189;49.546;7.906;2022-11-15T03:17:19;6.50;;;5.10;;
20056;SDS011;10189;49.546;7.906;2022-11-15T03:20:18;6.80;;;4.80;;
20056;SDS011;10189;49.546;7.906;2022-11-15T03:23:04;5.90;;;4.40;;
20056;SDS011;10189;49.546;7.906;2022-11-15T03:25:52;7.50;;;4.85;;
20056;SDS011;10189;49.546;7.906;2022-11-15T03:28:42;6.22;;;4.80;;
20056;SDS011;10189;49.546;7.906;2022-11-15T03:31:39;6.28;;;4.57;;
20056;SDS011;10189;49.546;7.906;2022-11-15T03:34:44;6.70;;;4.70;;
20056;SDS011;10189;49.546;7.906;2022-11-15T03:40:37;5.13;;;4.50;;
20056;SDS011;10189;49.546;7.906;2022-11-15T03:46:39;5.13;;;4.50;;
20056;SDS011;10189;49.546;7.906;2022-11-15T03:49:50;7.20;;;4.78;;
20056;SDS011;10189;49.546;7.906;2022-11-15T03:52:43;5.25;;;4.72;;
20056;SDS011;10189;49.546;7.906;2022-11-15T03:55:31;7.03;;;5.57;;
20056;SDS011;10189;49.546;7.906;2022-11-15T03:58:16;5.95;;;4.80;;
20056;SDS011;10189;49.546;7.906;2022-11-15T04:01:01;5.30;;;4.72;;
20056;SDS011;10189;49.546;7.906;2022-11-15T04:03:45;5.55;;;4.97;;
20056;SDS011;10189;49.546;7.906;2022-11-15T04:06:30;6.68;;;5.00;;
20056;SDS011;10189;49.546;7.906;2022-11-15T04:09:14;6.50;;;4.53;;
20056;SDS011;10189;49.546;7.906;2022-11-15T04:11:59;7.05;;;4.72;;
20056;SDS011;10189;49.546;7.906;2022-11-15T04:14:43;5.90;;;4.43;;
20056;SDS011;10189;49.546;7.906;2022-11-15T04:17:49;6.57;;;4.70;;
20056;SDS011;10189;49.546;7.906;2022-11-15T04:20:36;5.78;;;4.18;;
20056;SDS011;10189;49.546;7.906;2022-11-15T04:23:39;6.78;;;4.20;;
20056;SDS011;10189;49.546;7.906;2022-11-15T04:26:42;5.20;;;4.70;;
20056;SDS011;10189;49.546;7.906;2022-11-15T04:29:27;5.70;;;4.53;;
20056;SDS011;10189;49.546;7.906;2022-11-15T04:32:20;6.15;;;4.35;;
20056;SDS011;10189;49.546;7.906;2022-11-15T04:35:05;6.70;;;4.70;;
20056;SDS011;10189;49.546;7.906;2022-11-15T04:37:50;5.82;;;3.97;;
20056;SDS011;10189;49.546;7.906;2022-11-15T04:40:35;4.32;;;3.85;;
20056;SDS011;10189;49.546;7.906;2022-11-15T04:43:21;5.18;;;4.38;;
20056;SDS011;10189;49.546;7.906;2022-11-15T04:46:06;6.32;;;5.57;;
20056;SDS011;10189;49.546;7.906;2022-11-15T04:48:51;7.00;;;5.53;;
20056;SDS011;10189;49.546;7.906;2022-11-15T04:51:36;7.45;;;5.15;;
20056;SDS011;10189;49.546;7.906;2022-11-15T04:54:20;6.00;;;4.45;;
20056;SDS011;10189;49.546;7.906;2022-11-15T04:57:05;5.22;;;4.70;;
20056;SDS011;10189;49.546;7.906;2022-11-15T04:59:50;5.55;;;4.72;;
20056;SDS011;10189;49.546;7.906;2022-11-15T05:02:34;5.35;;;4.68;;
20056;SDS011;10189;49.546;7.906;2022-11-15T05:05:38;6.25;;;4.45;;
20056;SDS011;10189;49.546;7.906;2022-11-15T05:08:22;8.48;;;5.78;;
20056;SDS011;10189;49.546;7.906;2022-11-15T05:11:07;6.05;;;4.70;;
20056;SDS011;10189;49.546;7.906;2022-11-15T05:13:52;10.98;;;5.38;;
20056;SDS011;10189;49.546;7.906;2022-11-15T05:16:37;5.18;;;4.65;;
20056;SDS011;10189;49.546;7.906;2022-11-15T05:19:22;5.32;;;4.82;;
20056;SDS011;10189;49.546;7.906;2022-11-15T05:22:07;5.00;;;4.50;;
20056;SDS011;10189;49.546;7.906;2022-11-15T05:24:51;6.55;;;5.93;;
20056;SDS011;10189;49.546;7.906;2022-11-15T05:27:36;6.18;;;5.07;;
20056;SDS011;10189;49.546;7.906;2022-11-15T05:30:21;11.40;;;7.32;;
20056;SDS011;10189;49.546;7.906;2022-11-15T05:33:05;20.63;;;17.35;;
20056;SDS011;10189;49.546;7.906;2022-11-15T05:35:50;183.10;;;129.13;;
20056;SDS011;10189;49.546;7.906;2022-11-15T05:38:43;106.10;;;87.78;;
20056;SDS011;10189;49.546;7.906;2022-11-15T05:41:48;20.67;;;18.02;;
20056;SDS011;10189;49.546;7.906;2022-11-15T05:44:44;30.75;;;23.35;;
20056;SDS011;10189;49.546;7.906;2022-11-15T05:47:33;68.55;;;61.03;;
20056;SDS011;10189;49.546;7.906;2022-11-15T05:50:20;18.60;;;16.38;;
20056;SDS011;10189;49.546;7.906;2022-11-15T05:53:05;15.20;;;12.40;;
20056;SDS011;10189;49.546;7.906;2022-11-15T05:55:50;13.80;;;11.88;;
20056;SDS011;10189;49.546;7.906;2022-11-15T05:58:35;29.25;;;25.27;;
20056;SDS011;10189;49.546;7.906;2022-11-15T06:01:21;10.50;;;8.23;;
20056;SDS011;10189;49.546;7.906;2022-11-15T06:04:06;8.93;;;7.20;;
20056;SDS011;10189;49.546;7.906;2022-11-15T06:06:51;60.92;;;50.85;;
20056;SDS011;10189;49.546;7.906;2022-11-15T06:09:36;96.45;;;76.45;;
20056;SDS011;10189;49.546;7.906;2022-11-15T06:12:20;44.08;;;31.95;;
20056;SDS011;10189;49.546;7.906;2022-11-15T06:15:05;23.85;;;18.85;;
20056;SDS011;10189;49.546;7.906;2022-11-15T06:17:50;55.00;;;42.95;;
20056;SDS011;10189;49.546;7.906;2022-11-15T06:20:35;18.67;;;14.65;;
20056;SDS011;10189;49.546;7.906;2022-11-15T06:23:20;7.93;;;6.03;;
20056;SDS011;10189;49.546;7.906;2022-11-15T06:26:04;52.47;;;40.75;;
20056;SDS011;10189;49.546;7.906;2022-11-15T06:28:49;49.65;;;39.15;;
20056;SDS011;10189;49.546;7.906;2022-11-15T06:31:34;37.33;;;32.88;;
20056;SDS011;10189;49.546;7.906;2022-11-15T06:34:19;21.88;;;18.50;;
20056;SDS011;10189;49.546;7.906;2022-11-15T06:37:04;43.25;;;36.50;;
20056;SDS011;10189;49.546;7.906;2022-11-15T06:39:49;17.48;;;13.18;;
20056;SDS011;10189;49.546;7.906;2022-11-15T06:42:33;27.50;;;22.83;;
20056;SDS011;10189;49.546;7.906;2022-11-15T06:45:18;27.50;;;22.95;;
20056;SDS011;10189;49.546;7.906;2022-11-15T06:48:02;32.90;;;29.00;;
20056;SDS011;10189;49.546;7.906;2022-11-15T06:50:54;49.92;;;45.08;;
20056;SDS011;10189;49.546;7.906;2022-11-15T06:53:40;55.33;;;49.50;;
20056;SDS011;10189;49.546;7.906;2022-11-15T06:56:25;114.07;;;97.60;;
20056;SDS011;10189;49.546;7.906;2022-11-15T06:59:09;33.10;;;27.85;;
20056;SDS011;10189;49.546;7.906;2022-11-15T07:01:54;12.18;;;10.73;;
20056;SDS011;10189;49.546;7.906;2022-11-15T07:04:38;38.00;;;34.00;;
20056;SDS011;10189;49.546;7.906;2022-11-15T07:07:23;85.72;;;65.45;;
20056;SDS011;10189;49.546;7.906;2022-11-15T07:10:08;227.50;;;140.20;;
20056;SDS011;10189;49.546;7.906;2022-11-15T07:12:53;103.50;;;66.05;;
20056;SDS011;10189;49.546;7.906;2022-11-15T07:15:39;43.67;;;33.20;;
20056;SDS011;10189;49.546;7.906;2022-11-15T07:18:24;35.13;;;26.17;;
20056;SDS011;10189;49.546;7.906;2022-11-15T07:21:09;51.65;;;39.22;;
20056;SDS011;10189;49.546;7.906;2022-11-15T07:23:54;24.15;;;18.25;;
20056;SDS011;10189;49.546;7.906;2022-11-15T07:26:39;9.48;;;7.72;;
20056;SDS011;10189;49.546;7.906;2022-11-15T07:29:24;8.77;;;4.63;;
20056;SDS011;10189;49.546;7.906;2022-11-15T07:32:09;15.95;;;10.35;;
20056;SDS011;10189;49.546;7.906;2022-11-15T07:34:53;21.67;;;14.80;;
20056;SDS011;10189;49.546;7.906;2022-11-15T07:37:38;20.88;;;15.60;;
20056;SDS011;10189;49.546;7.906;2022-11-15T07:40:23;15.43;;;9.85;;
20056;SDS011;10189;49.546;7.906;2022-11-15T07:43:08;8.38;;;6.70;;
20056;SDS011;10189;49.546;7.906;2022-11-15T07:45:53;11.32;;;7.57;;
20056;SDS011;10189;49.546;7.906;2022-11-15T07:48:38;11.05;;;8.00;;
20056;SDS011;10189;49.546;7.906;2022-11-15T07:51:24;6.13;;;4.63;;
20056;SDS011;10189;49.546;7.906;2022-11-15T07:54:09;6.05;;;4.85;;
20056;SDS011;10189;49.546;7.906;2022-11-15T07:56:53;11.77;;;5.85;;
20056;SDS011;10189;49.546;7.906;2022-11-15T07:59:38;19.88;;;12.80;;
20056;SDS011;10189;49.546;7.906;2022-11-15T08:02:23;9.80;;;6.90;;
20056;SDS011;10189;49.546;7.906;2022-11-15T08:05:08;11.95;;;7.90;;
20056;SDS011;10189;49.546;7.906;2022-11-15T08:07:54;9.20;;;8.30;;
20056;SDS011;10189;49.546;7.906;2022-11-15T08:10:40;12.82;;;10.00;;
20056;SDS011;10189;49.546;7.906;2022-11-15T08:13:24;9.60;;;6.82;;
20056;SDS011;10189;49.546;7.906;2022-11-15T08:16:09;10.90;;;7.20;;
20056;SDS011;10189;49.546;7.906;2022-11-15T08:18:55;9.15;;;6.97;;
20056;SDS011;10189;49.546;7.906;2022-11-15T08:21:39;10.38;;;9.30;;
20056;SDS011;10189;49.546;7.906;2022-11-15T08:24:24;8.20;;;5.22;;
20056;SDS011;10189;49.546;7.906;2022-11-15T08:27:09;9.70;;;6.68;;
20056;SDS011;10189;49.546;7.906;2022-11-15T08:29:58;7.50;;;6.55;;
20056;SDS011;10189;49.546;7.906;2022-11-15T08:32:43;10.50;;;8.40;;
20056;SDS011;10189;49.546;7.906;2022-11-15T08:35:27;4.85;;;4.38;;
20056;SDS011;10189;49.546;7.906;2022-11-15T08:38:12;7.18;;;4.97;;
20056;SDS011;10189;49.546;7.906;2022-11-15T08:41:01;4.78;;;3.50;;
20056;SDS011;10189;49.546;7.906;2022-11-15T08:43:48;10.82;;;8.45;;
20056;SDS011;10189;49.546;7.906;2022-11-15T08:46:32;4.10;;;3.35;;
20056;SDS011;10189;49.546;7.906;2022-11-15T08:49:17;12.88;;;9.70;;
20056;SDS011;10189;49.546;7.906;2022-11-15T08:52:02;8.95;;;7.35;;
20056;SDS011;10189;49.546;7.906;2022-11-15T08:54:47;6.07;;;5.47;;
20056;SDS011;10189;49.546;7.906;2022-11-15T08:57:31;5.63;;;4.18;;
20056;SDS011;10189;49.546;7.906;2022-11-15T09:00:16;5.88;;;4.70;;
20056;SDS011;10189;49.546;7.906;2022-11-15T09:03:03;15.43;;;9.60;;
20056;SDS011;10189;49.546;7.906;2022-11-15T09:05:53;4.38;;;3.20;;
20056;SDS011;10189;49.546;7.906;2022-11-15T09:08:40;6.35;;;4.57;;
20056;SDS011;10189;49.546;7.906;2022-11-15T09:11:24;9.35;;;8.07;;
20056;SDS011;10189;49.546;7.906;2022-11-15T09:14:13;23.02;;;20.70;;
20056;SDS011;10189;49.546;7.906;2022-11-15T09:16:58;5.03;;;3.80;;
20056;SDS011;10189;49.546;7.906;2022-11-15T09:19:44;14.05;;;10.70;;
20056;SDS011;10189;49.546;7.906;2022-11-15T09:22:29;12.18;;;10.07;;
20056;SDS011;10189;49.546;7.906;2022-11-15T09:25:14;57.13;;;44.13;;
20056;SDS011;10189;49.546;7.906;2022-11-15T09:27:58;18.17;;;14.10;;
20056;SDS011;10189;49.546;7.906;2022-11-15T09:30:43;6.70;;;4.35;;
20056;SDS011;10189;49.546;7.906;2022-11-15T09:33:27;20.77;;;16.25;;
20056;SDS011;10189;49.546;7.906;2022-11-15T09:36:12;30.88;;;22.00;;
20056;SDS011;10189;49.546;7.906;2022-11-15T09:38:57;4.70;;;3.90;;
20056;SDS011;10189;49.546;7.906;2022-11-15T09:41:48;6.72;;;5.05;;
20056;SDS011;10189;49.546;7.906;2022-11-15T09:51:08;4.72;;;3.17;;
20056;SDS011;10189;49.546;7.906;2022-11-15T09:56:46;3.38;;;2.70;;
20056;SDS011;10189;49.546;7.906;2022-11-15T10:04:56;4.45;;;3.13;;
20056;SDS011;10189;49.546;7.906;2022-11-15T10:07:26;6.63;;;5.05;;
20056;SDS011;10189;49.546;7.906;2022-11-15T10:10:15;19.57;;;14.93;;
20056;SDS011;10189;49.546;7.906;2022-11-15T10:12:47;10.32;;;8.40;;
20056;SDS011;10189;49.546;7.906;2022-11-15T10:15:16;7.55;;;5.65;;
20056;SDS011;10189;49.546;7.906;2022-11-15T10:20:24;8.65;;;7.28;;
20056;SDS011;10189;49.546;7.906;2022-11-15T10:22:59;10.88;;;9.10;;
20056;SDS011;10189;49.546;7.906;2022-11-15T10:25:31;6.40;;;4.03;;
20056;SDS011;10189;49.546;7.906;2022-11-15T10:28:44;5.10;;;3.42;;
20056;SDS011;10189;49.546;7.906;2022-11-15T10:30:54;8.07;;;7.28;;
20056;SDS011;10189;49.546;7.906;2022-11-15T10:33:35;4.35;;;3.50;;
20056;SDS011;10189;49.546;7.906;2022-11-15T10:39:10;5.55;;;4.05;;
20056;SDS011;10189;49.546;7.906;2022-11-15T10:41:29;11.77;;;9.00;;
20056;SDS011;10189;49.546;7.906;2022-11-15T10:44:17;2.55;;;2.28;;
20056;SDS011;10189;49.546;7.906;2022-11-15T10:49:22;3.33;;;2.30;;
20056;SDS011;10189;49.546;7.906;2022-11-15T10:51:58;13.50;;;10.70;;
20056;SDS011;10189;49.546;7.906;2022-11-15T10:57:15;4.97;;;3.03;;
20056;SDS011;10189;49.546;7.906;2022-11-15T10:59:49;3.30;;;2.28;;
20056;SDS011;10189;49.546;7.906;2022-11-15T11:02:35;3.75;;;2.20;;
20056;SDS011;10189;49.546;7.906;2022-11-15T11:05:33;4.03;;;2.22;;
20056;SDS011;10189;49.546;7.906;2022-11-15T11:08:04;3.80;;;2.30;;
20056;SDS011;10189;49.546;7.906;2022-11-15T11:10:36;2.35;;;1.85;;
20056;SDS011;10189;49.546;7.906;2022-11-15T11:13:15;2.50;;;1.85;;
20056;SDS011;10189;49.546;7.906;2022-11-15T11:15:52;2.17;;;1.98;;
20056;SDS011;10189;49.546;7.906;2022-11-15T11:21:54;2.78;;;2.55;;
20056;SDS011;10189;49.546;7.906;2022-11-15T11:27:20;1.65;;;1.50;;
20056;SDS011;10189;49.546;7.906;2022-11-15T11:42:17;3.55;;;1.80;;
20056;SDS011;10189;49.546;7.906;2022-11-15T11:45:39;6.13;;;3.80;;
20056;SDS011;10189;49.546;7.906;2022-11-15T11:48:30;2.97;;;1.60;;
20056;SDS011;10189;49.546;7.906;2022-11-15T11:51:10;2.38;;;2.17;;
20056;SDS011;10189;49.546;7.906;2022-11-15T11:56:56;3.83;;;2.70;;
20056;SDS011;10189;49.546;7.906;2022-11-15T12:02:08;2.97;;;2.70;;
20056;SDS011;10189;49.546;7.906;2022-11-15T12:05:16;2.80;;;2.42;;
20056;SDS011;10189;49.546;7.906;2022-11-15T12:08:04;2.85;;;2.65;;
20056;SDS011;10189;49.546;7.906;2022-11-15T12:10:59;5.63;;;2.55;;
20056;SDS011;10189;49.546;7.906;2022-11-15T12:13:37;1.63;;;1.52;;
20056;SDS011;10189;49.546;7.906;2022-11-15T12:18:53;3.83;;;3.47;;
20056;SDS011;10189;49.546;7.906;2022-11-15T12:24:42;2.30;;;1.70;;
20056;SDS011;10189;49.546;7.906;2022-11-15T12:27:35;2.10;;;1.90;;
20056;SDS011;10189;49.546;7.906;2022-11-15T12:30:22;5.43;;;4.63;;
20056;SDS011;10189;49.546;7.906;2022-11-15T12:32:58;3.65;;;3.28;;
20056;SDS011;10189;49.546;7.906;2022-11-15T12:35:27;3.47;;;2.30;;
20056;SDS011;10189;49.546;7.906;2022-11-15T12:38:11;2.20;;;1.77;;
20056;SDS011;10189;49.546;7.906;2022-11-15T12:44:01;1.17;;;1.08;;
20056;SDS011;10189;49.546;7.906;2022-11-15T13:02:17;1.38;;;1.27;;
20056;SDS011;10189;49.546;7.906;2022-11-15T13:04:48;1.30;;;1.20;;
20056;SDS011;10189;49.546;7.906;2022-11-15T13:10:00;2.05;;;1.30;;
20056;SDS011;10189;49.546;7.906;2022-11-15T13:12:53;1.33;;;1.02;;
20056;SDS011;10189;49.546;7.906;2022-11-15T13:21:18;0.70;;;0.70;;
20056;SDS011;10189;49.546;7.906;2022-11-15T13:24:12;1.85;;;1.13;;
20056;SDS011;10189;49.546;7.906;2022-11-15T13:26:41;1.13;;;0.80;;
20056;SDS011;10189;49.546;7.906;2022-11-15T13:29:14;1.45;;;1.00;;
20056;SDS011;10189;49.546;7.906;2022-11-15T13:31:43;2.10;;;1.45;;
20056;SDS011;10189;49.546;7.906;2022-11-15T13:37:01;1.27;;;1.00;;
20056;SDS011;10189;49.546;7.906;2022-11-15T13:39:29;1.63;;;1.30;;
20056;SDS011;10189;49.546;7.906;2022-11-15T13:41:57;1.73;;;1.00;;
20056;SDS011;10189;49.546;7.906;2022-11-15T13:44:25;1.17;;;1.00;;
20056;SDS011;10189;49.546;7.906;2022-11-15T13:47:07;2.13;;;1.58;;
20056;SDS011;10189;49.546;7.906;2022-11-15T13:49:39;1.05;;;0.95;;
20056;SDS011;10189;49.546;7.906;2022-11-15T13:52:07;2.97;;;2.00;;
20056;SDS011;10189;49.546;7.906;2022-11-15T13:57:45;1.63;;;1.52;;
20056;SDS011;10189;49.546;7.906;2022-11-15T14:06:02;1.10;;;1.00;;
20056;SDS011;10189;49.546;7.906;2022-11-15T14:08:40;1.00;;;0.90;;
20056;SDS011;10189;49.546;7.906;2022-11-15T14:11:22;1.33;;;0.90;;
20056;SDS011;10189;49.546;7.906;2022-11-15T14:16:37;2.58;;;0.90;;
20056;SDS011;10189;49.546;7.906;2022-11-15T14:19:05;1.27;;;0.80;;
20056;SDS011;10189;49.546;7.906;2022-11-15T14:21:34;4.03;;;1.30;;
20056;SDS011;10189;49.546;7.906;2022-11-15T14:24:14;0.88;;;0.88;;
20056;SDS011;10189;49.546;7.906;2022-11-15T14:26:45;0.95;;;0.82;;
20056;SDS011;10189;49.546;7.906;2022-11-15T14:29:28;2.70;;;1.13;;
20056;SDS011;10189;49.546;7.906;2022-11-15T14:34:49;1.50;;;1.20;;
20056;SDS011;10189;49.546;7.906;2022-11-15T14:37:31;2.42;;;1.17;;
20056;SDS011;10189;49.546;7.906;2022-11-15T14:40:02;4.18;;;3.38;;
20056;SDS011;10189;49.546;7.906;2022-11-15T14:42:31;1.85;;;1.63;;
20056;SDS011;10189;49.546;7.906;2022-11-15T14:44:57;4.60;;;2.70;;
20056;SDS011;10189;49.546;7.906;2022-11-15T14:47:23;4.05;;;2.60;;
20056;SDS011;10189;49.546;7.906;2022-11-15T14:49:49;30.92;;;19.27;;
20056;SDS011;10189;49.546;7.906;2022-11-15T14:52:27;15.65;;;10.25;;
20056;SDS011;10189;49.546;7.906;2022-11-15T14:54:58;1.30;;;1.20;;
20056;SDS011;10189;49.546;7.906;2022-11-15T14:57:27;1.30;;;1.05;;
20056;SDS011;10189;49.546;7.906;2022-11-15T14:59:53;5.63;;;1.25;;
20056;SDS011;10189;49.546;7.906;2022-11-15T15:02:20;1.15;;;1.00;;
20056;SDS011;10189;49.546;7.906;2022-11-15T15:04:52;1.42;;;1.10;;
20056;SDS011;10189;49.546;7.906;2022-11-15T15:07:18;1.48;;;1.02;;
20056;SDS011;10189;49.546;7.906;2022-11-15T15:09:45;1.35;;;1.10;;
20056;SDS011;10189;49.546;7.906;2022-11-15T15:12:18;2.13;;;1.52;;
20056;SDS011;10189;49.546;7.906;2022-11-15T15:14:47;3.00;;;1.80;;
20056;SDS011;10189;49.546;7.906;2022-11-15T15:17:15;1.98;;;1.65;;
20056;SDS011;10189;49.546;7.906;2022-11-15T15:19:42;3.28;;;1.60;;
20056;SDS011;10189;49.546;7.906;2022-11-15T15:22:18;3.53;;;1.65;;
20056;SDS011;10189;49.546;7.906;2022-11-15T15:24:50;1.83;;;1.70;;
20056;SDS011;10189;49.546;7.906;2022-11-15T15:27:16;2.28;;;2.08;;
20056;SDS011;10189;49.546;7.906;2022-11-15T15:29:42;3.22;;;2.80;;
20056;SDS011;10189;49.546;7.906;2022-11-15T15:32:16;2.65;;;2.17;;
20056;SDS011;10189;49.546;7.906;2022-11-15T15:34:42;3.78;;;1.80;;
20056;SDS011;10189;49.546;7.906;2022-11-15T15:37:25;1.92;;;1.73;;
20056;SDS011;10189;49.546;7.906;2022-11-15T15:39:54;3.95;;;2.15;;
20056;SDS011;10189;49.546;7.906;2022-11-15T15:42:22;2.15;;;1.67;;
20056;SDS011;10189;49.546;7.906;2022-11-15T15:44:49;3.20;;;1.58;;
20056;SDS011;10189;49.546;7.906;2022-11-15T15:47:21;2.10;;;1.70;;
20056;SDS011;10189;49.546;7.906;2022-11-15T15:49:49;3.80;;;1.90;;
20056;SDS011;10189;49.546;7.906;2022-11-15T15:52:16;5.70;;;2.90;;
20056;SDS011;10189;49.546;7.906;2022-11-15T15:54:42;11.02;;;6.78;;
20056;SDS011;10189;49.546;7.906;2022-11-15T15:57:08;5.22;;;3.53;;
20056;SDS011;10189;49.546;7.906;2022-11-15T15:59:38;3.72;;;3.17;;
20056;SDS011;10189;49.546;7.906;2022-11-15T16:02:04;3.70;;;2.88;;
20056;SDS011;10189;49.546;7.906;2022-11-15T16:04:30;2.83;;;1.23;;
20056;SDS011;10189;49.546;7.906;2022-11-15T16:06:59;1.80;;;1.30;;
20056;SDS011;10189;49.546;7.906;2022-11-15T16:09:26;2.08;;;1.60;;
20056;SDS011;10189;49.546;7.906;2022-11-15T16:12:11;4.45;;;1.80;;
20056;SDS011;10189;49.546;7.906;2022-11-15T16:14:36;3.15;;;1.63;;
20056;SDS011;10189;49.546;7.906;2022-11-15T16:17:02;1.85;;;1.60;;
20056;SDS011;10189;49.546;7.906;2022-11-15T16:19:29;1.85;;;1.75;;
20056;SDS011;10189;49.546;7.906;2022-11-15T16:21:55;4.90;;;1.98;;
20056;SDS011;10189;49.546;7.906;2022-11-15T16:24:21;1.73;;;1.63;;
20056;SDS011;10189;49.546;7.906;2022-11-15T16:26:47;3.53;;;1.70;;
20056;SDS011;10189;49.546;7.906;2022-11-15T16:29:15;2.22;;;1.70;;
20056;SDS011;10189;49.546;7.906;2022-11-15T16:31:41;2.35;;;1.80;;
20056;SDS011;10189;49.546;7.906;2022-11-15T16:34:07;3.42;;;2.20;;
20056;SDS011;10189;49.546;7.906;2022-11-15T16:36:33;3.78;;;2.70;;
20056;SDS011;10189;49.546;7.906;2022-11-15T16:39:01;3.38;;;2.00;;
20056;SDS011;10189;49.546;7.906;2022-11-15T16:43:57;6.05;;;3.50;;
20056;SDS011;10189;49.546;7.906;2022-11-15T16:46:27;8.25;;;5.75;;
20056;SDS011;10189;49.546;7.906;2022-11-15T16:48:54;17.80;;;16.00;;
20056;SDS011;10189;49.546;7.906;2022-11-15T16:51:20;19.95;;;17.98;;
20056;SDS011;10189;49.546;7.906;2022-11-15T16:53:47;9.77;;;8.77;;
20056;SDS011;10189;49.546;7.906;2022-11-15T16:56:24;6.07;;;4.78;;
20056;SDS011;10189;49.546;7.906;2022-11-15T16:58:53;4.90;;;4.45;;
20056;SDS011;10189;49.546;7.906;2022-11-15T17:01:36;4.50;;;3.50;;
20056;SDS011;10189;49.546;7.906;2022-11-15T17:04:13;4.38;;;3.47;;
20056;SDS011;10189;49.546;7.906;2022-11-15T17:06:42;7.90;;;2.88;;
20056;SDS011;10189;49.546;7.906;2022-11-15T17:09:20;5.78;;;3.78;;
20056;SDS011;10189;49.546;7.906;2022-11-15T17:11:50;5.30;;;3.63;;
20056;SDS011;10189;49.546;7.906;2022-11-15T17:14:17;4.68;;;4.22;;
20056;SDS011;10189;49.546;7.906;2022-11-15T17:16:43;6.47;;;4.30;;
20056;SDS011;10189;49.546;7.906;2022-11-15T17:21:41;13.02;;;9.48;;
20056;SDS011;10189;49.546;7.906;2022-11-15T17:24:08;7.93;;;6.18;;
20056;SDS011;10189;49.546;7.906;2022-11-15T17:26:35;9.15;;;6.78;;
20056;SDS011;10189;49.546;7.906;2022-11-15T17:29:02;9.63;;;8.63;;
20056;SDS011;10189;49.546;7.906;2022-11-15T17:31:32;19.42;;;16.67;;
20056;SDS011;10189;49.546;7.906;2022-11-15T17:34:00;15.52;;;13.30;;
20056;SDS011;10189;49.546;7.906;2022-11-15T17:36:27;22.30;;;16.92;;
20056;SDS011;10189;49.546;7.906;2022-11-15T17:38:53;12.43;;;9.85;;
20056;SDS011;10189;49.546;7.906;2022-11-15T17:41:19;15.35;;;13.07;;
20056;SDS011;10189;49.546;7.906;2022-11-15T17:43:45;34.67;;;30.25;;
20056;SDS011;10189;49.546;7.906;2022-11-15T17:46:13;25.05;;;22.35;;
20056;SDS011;10189;49.546;7.906;2022-11-15T17:48:43;9.85;;;8.07;;
20056;SDS011;10189;49.546;7.906;2022-11-15T17:51:13;12.97;;;11.47;;
20056;SDS011;10189;49.546;7.906;2022-11-15T17:53:42;15.57;;;13.88;;
20056;SDS011;10189;49.546;7.906;2022-11-15T17:56:13;14.20;;;12.05;;
20056;SDS011;10189;49.546;7.906;2022-11-15T18:01:17;13.45;;;12.02;;
20056;SDS011;10189;49.546;7.906;2022-11-15T18:03:51;8.95;;;8.05;;
20056;SDS011;10189;49.546;7.906;2022-11-15T18:06:19;7.03;;;5.93;;
20056;SDS011;10189;49.546;7.906;2022-11-15T18:08:47;5.68;;;4.85;;
20056;SDS011;10189;49.546;7.906;2022-11-15T18:11:16;7.10;;;5.47;;
20056;SDS011;10189;49.546;7.906;2022-11-15T18:13:46;7.50;;;5.40;;
20056;SDS011;10189;49.546;7.906;2022-11-15T18:16:17;4.45;;;3.38;;
20056;SDS011;10189;49.546;7.906;2022-11-15T18:18:50;7.50;;;5.82;;
20056;SDS011;10189;49.546;7.906;2022-11-15T18:21:21;10.70;;;8.45;;
20056;SDS011;10189;49.546;7.906;2022-11-15T18:23:53;9.88;;;8.50;;
20056;SDS011;10189;49.546;7.906;2022-11-15T18:26:26;6.82;;;5.95;;
20056;SDS011;10189;49.546;7.906;2022-11-15T18:28:55;7.65;;;6.40;;
20056;SDS011;10189;49.546;7.906;2022-11-15T18:31:29;12.13;;;10.90;;
20056;SDS011;10189;49.546;7.906;2022-11-15T18:33:57;11.35;;;10.18;;